< < Back
Terminal Aerodrome Forecast


Current Version              Previous Versions:   1  2  3  4  5  6  7  8  9  

Terminal Aerodrome Forecast

510
FTUS42 KFFC 301851 AAA
TAFMCN
TAF AMD
KMCN 301851Z 3019/3118 VRB05KT P6SM FEW045 SCT100
      TEMPO 3019/3023 VRB15G25KT 2SM TSRA BKN050CB
     FM310200 24004KT P6SM SCT250
     FM310900 24003KT 5SM BR SCT035
     FM311200 24003KT P6SM BKN035 PROB30 3115/3118 SHRA OVC025=

Latest METAR

098
SAUS80 KWBC 310300 RRA
MTRMCN
METAR KMCN 310253Z AUTO 27003KT 10SM CLR 24/22 A3003 RMK AO2 SLP163
T02440217 53012 TSNO


USA.gov is the U.S. government's official web portal to all federal, state and local government web resources and services.